Dallas, Texas
Current Conditions -  °F | °C
As of 3:53 AM on Sunday 23 Nov 2014 (Local Time) from KDAL Reporting Station
Haze Haze  
Wind Chill: 58°   Ceiling: 200
Heat Index: 58°   Visibility: 1.5mi
Dew Point: 57°   Wind: 3mph
Humidity: 97%   Direction: 200°SSW
Pressure: 29.63"   Gusts: NA
Location:  32.78°N, 96.79°W
Report Text: KDAL 230953Z 20003KT 1 1/2SM BR OVC002 14/14 A2963 RMK AO2 SLP029 OVC V BKN T01440139
Loading
Personal Weather Stations






























Interactive Weather Map New forecast layout! Learn more

10-Day Weather Forecast

Advertisements
Track Severe Weather on mobile